Terminal Aerodrome Forecast
Issued by NWS

Home | Current Version | Previous Version | Text Only | Print | Product List | Glossary On
Versions: 1 2 3 4 5 6 7 8 9 10 11 12 13
426
FTUS43 KILX 240528
TAFCMI
TAF
KCMI 240528Z 2406/2506 17009KT P6SM SCT020
     FM241100 17008KT 5SM -SHRA BR VCTS SCT012 OVC025CB
      TEMPO 2411/2414 3SM TSRA BR SCT006 OVC012CB
     FM241600 22011KT P6SM BKN025
     FM242100 19012KT P6SM SCT040 BKN250
     FM250300 19010KT P6SM VCTS BKN050CB=

USA.gov is the U.S. government's official web portal to all federal, state and local government web resources and services.